Antioch, Tennessee
Current Conditions -  °F | °C
As of 6:53 AM on Friday 19 Dec 2014 (Local Time) from KBNA Reporting Station
Overcast Overcast  
Wind Chill: 27°   Ceiling: 4800
Heat Index: 35°   Visibility: 9mi
Dew Point: 29°   Wind: 10mph
Humidity: 78%   Direction: 40°NE
Pressure: 30.26"   Gusts: NA
Location:  36.06°N, 86.67°W
Report Text: KBNA 191253Z 04009KT 9SM FEW015 OVC048 02/M02 A3026 RMK AO2 SLP250 T00171017
Loading
Personal Weather Stations






























Interactive Weather Map New forecast layout! Learn more

10-Day Weather Forecast

Advertisements
Track Severe Weather on mobile